createdAt,value
2022-09-23T00:01:35.163Z,7.73
2022-09-23T00:04:03.578Z,8.43
2022-09-23T00:06:31.667Z,8.93
2022-09-23T00:08:59.735Z,8.30
2022-09-23T00:11:29.580Z,9.07
2022-09-23T00:13:59.672Z,8.40
2022-09-23T00:16:30.595Z,8.77
2022-09-23T00:19:00.953Z,8.90
2022-09-23T00:21:29.591Z,8.77
2022-09-23T00:23:57.690Z,8.47
2022-09-23T00:26:26.112Z,6.53
2022-09-23T00:28:54.232Z,7.70
2022-09-23T00:31:24.109Z,8.20
2022-09-23T00:33:56.693Z,8.77
2022-09-23T00:36:27.034Z,8.10
2022-09-23T00:38:55.931Z,8.30
2022-09-23T00:41:24.853Z,7.93
2022-09-23T00:43:54.887Z,7.80
2022-09-23T00:46:29.243Z,8.13
2022-09-23T00:49:01.148Z,7.60
2022-09-23T00:51:34.482Z,7.60
2022-09-23T00:54:03.737Z,7.40
2022-09-23T00:56:33.798Z,7.97
2022-09-23T00:59:02.725Z,8.27
2022-09-23T01:01:30.913Z,8.70
2022-09-23T01:04:00.031Z,7.90
2022-09-23T01:06:29.486Z,8.23
2022-09-23T01:08:58.987Z,8.23
2022-09-23T01:11:46.304Z,8.00
2022-09-23T01:14:32.052Z,8.33
2022-09-23T01:17:05.200Z,7.03
2022-09-23T01:19:59.381Z,7.70
2022-09-23T01:22:36.449Z,8.10
2022-09-23T01:25:37.320Z,7.00
2022-09-23T01:28:34.271Z,7.87
2022-09-23T01:31:09.469Z,7.40
2022-09-23T01:33:45.120Z,7.70
2022-09-23T01:36:22.978Z,7.70
2022-09-23T01:38:59.567Z,8.27
2022-09-23T01:41:47.059Z,7.70
2022-09-23T01:44:21.089Z,7.90
2022-09-23T01:46:55.002Z,7.93
2022-09-23T01:49:28.990Z,7.70
2022-09-23T01:52:05.400Z,7.87
2022-09-23T01:54:40.189Z,8.10
2022-09-23T01:57:13.646Z,7.63
2022-09-23T01:59:45.769Z,8.37
2022-09-23T02:02:24.152Z,7.70
2022-09-23T02:04:57.168Z,8.07
2022-09-23T02:07:28.677Z,8.13
2022-09-23T02:10:01.247Z,7.63
2022-09-23T02:12:33.514Z,7.73
2022-09-23T02:15:07.131Z,8.10
2022-09-23T02:17:43.636Z,7.90
2022-09-23T02:20:15.870Z,8.13
2022-09-23T02:22:52.334Z,7.63
2022-09-23T02:25:25.258Z,8.10
2022-09-23T02:27:59.953Z,8.30
2022-09-23T02:30:31.781Z,7.73
2022-09-23T02:33:05.770Z,7.83
2022-09-23T02:35:37.157Z,8.20
2022-09-23T02:38:18.186Z,7.17
2022-09-23T02:40:54.851Z,8.40
2022-09-23T02:43:27.939Z,7.40
2022-09-23T02:45:56.137Z,6.87
2022-09-23T02:48:30.794Z,7.80
2022-09-23T02:51:02.249Z,9.10
2022-09-23T02:53:33.792Z,8.37
2022-09-23T02:56:02.163Z,7.57
2022-09-23T02:58:30.949Z,8.10
2022-09-23T03:01:08.537Z,7.80
2022-09-23T03:03:44.614Z,7.73
2022-09-23T03:06:24.244Z,8.00
2022-09-23T03:08:57.943Z,8.50
2022-09-23T03:11:26.075Z,7.00
2022-09-23T03:14:05.223Z,7.40
2022-09-23T03:16:40.772Z,6.90
2022-09-23T03:19:20.799Z,7.50
2022-09-23T03:21:57.718Z,7.60
2022-09-23T03:24:26.405Z,7.20
2022-09-23T03:26:55.898Z,6.90
2022-09-23T03:29:24.604Z,7.30
2022-09-23T03:31:53.354Z,7.60
2022-09-23T03:34:26.307Z,8.10
2022-09-23T03:37:01.635Z,8.07
2022-09-23T03:39:40.146Z,8.00
2022-09-23T03:42:12.592Z,7.93
2022-09-23T03:44:44.554Z,8.00
2022-09-23T03:47:14.512Z,8.27
2022-09-23T03:49:48.324Z,8.40
2022-09-23T03:52:16.724Z,8.90
2022-09-23T03:54:45.073Z,9.60
2022-09-23T03:57:13.752Z,7.67
2022-09-23T03:59:42.246Z,7.90
2022-09-23T04:02:11.871Z,7.60
2022-09-23T04:04:41.604Z,8.07
2022-09-23T04:07:11.915Z,8.10
2022-09-23T04:09:40.289Z,7.33
2022-09-23T04:12:09.081Z,7.70
2022-09-23T04:14:37.161Z,8.30
2022-09-23T04:17:05.514Z,7.50
2022-09-23T04:19:33.549Z,8.60
2022-09-23T04:22:01.949Z,8.17
2022-09-23T04:24:31.519Z,8.20
2022-09-23T04:26:59.824Z,8.47
2022-09-23T04:29:28.061Z,8.30
2022-09-23T04:31:56.394Z,8.90
2022-09-23T04:34:24.726Z,8.23
2022-09-23T04:36:52.779Z,8.23
2022-09-23T04:39:21.102Z,8.80
2022-09-23T04:41:50.619Z,9.03
2022-09-23T04:44:21.254Z,8.43
2022-09-23T04:46:49.724Z,8.53
2022-09-23T04:49:18.481Z,9.73
2022-09-23T04:51:46.638Z,8.57
2022-09-23T04:54:15.423Z,10.60
2022-09-23T04:56:43.534Z,14.50
2022-09-23T04:59:12.966Z,12.73
2022-09-23T05:01:41.620Z,14.83
2022-09-23T05:04:14.307Z,11.10
2022-09-23T05:06:44.044Z,10.07
2022-09-23T05:09:17.609Z,9.87
2022-09-23T05:11:46.490Z,9.30
2022-09-23T05:14:15.957Z,9.50
2022-09-23T05:16:44.064Z,8.80
2022-09-23T05:19:13.585Z,9.67
2022-09-23T05:21:41.792Z,10.57
2022-09-23T05:24:10.741Z,9.70
2022-09-23T05:26:39.295Z,9.70
2022-09-23T05:29:07.846Z,9.40
2022-09-23T05:31:37.783Z,10.30
2022-09-23T05:34:07.050Z,8.87
2022-09-23T05:36:38.704Z,9.30
2022-09-23T05:39:08.838Z,11.67
2022-09-23T05:41:37.729Z,15.67
2022-09-23T05:44:06.225Z,14.77
2022-09-23T05:46:35.158Z,11.70
2022-09-23T05:49:05.940Z,10.20
2022-09-23T05:51:35.387Z,9.03
2022-09-23T05:54:05.461Z,8.30
2022-09-23T05:56:35.339Z,8.80
2022-09-23T05:59:04.999Z,8.20
2022-09-23T06:01:35.258Z,8.23
2022-09-23T06:04:06.650Z,7.80
2022-09-23T06:06:36.779Z,8.20
2022-09-23T06:09:05.121Z,8.33
2022-09-23T06:11:34.674Z,8.23
2022-09-23T06:14:03.585Z,7.20
2022-09-23T06:16:34.319Z,8.17
2022-09-23T06:19:06.881Z,8.60
2022-09-23T06:21:37.216Z,8.27
2022-09-23T06:24:06.340Z,7.97
2022-09-23T06:26:35.246Z,8.50
2022-09-23T06:29:04.506Z,7.90
2022-09-23T06:31:32.969Z,8.80
2022-09-23T06:34:12.454Z,8.77
2022-09-23T06:36:45.311Z,9.90
2022-09-23T06:39:15.467Z,8.47
2022-09-23T06:41:44.312Z,8.77
2022-09-23T06:44:15.835Z,12.70
2022-09-23T06:46:44.470Z,8.83
2022-09-23T06:49:13.536Z,7.77
2022-09-23T06:51:43.313Z,7.93
2022-09-23T06:54:12.155Z,6.90
2022-09-23T06:56:40.445Z,5.60
2022-09-23T06:59:10.719Z,6.53
2022-09-23T07:01:38.796Z,6.90
2022-09-23T07:04:08.079Z,6.30
2022-09-23T07:06:36.404Z,6.97
2022-09-23T07:09:07.144Z,7.60
2022-09-23T07:11:35.332Z,7.83
2022-09-23T07:14:03.629Z,10.80
2022-09-23T07:16:32.841Z,8.70
2022-09-23T07:19:01.063Z,8.33
2022-09-23T07:21:29.298Z,5.87
2022-09-23T07:23:57.991Z,6.67
2022-09-23T07:26:29.743Z,7.00
2022-09-23T07:29:04.833Z,7.00
2022-09-23T07:31:39.184Z,10.33
2022-09-23T07:34:09.943Z,8.00
2022-09-23T07:36:40.581Z,5.77
2022-09-23T07:39:11.130Z,5.23
2022-09-23T07:41:41.725Z,5.07
2022-09-23T07:44:11.829Z,5.80
2022-09-23T07:46:40.161Z,5.00
2022-09-23T07:49:08.506Z,5.00
2022-09-23T07:51:40.143Z,4.90
2022-09-23T07:54:11.378Z,4.70
2022-09-23T07:56:41.143Z,4.90
2022-09-23T07:59:12.192Z,5.63
2022-09-23T08:01:42.874Z,4.63
2022-09-23T08:04:14.717Z,4.47
2022-09-23T08:06:43.802Z,6.13
2022-09-23T08:09:12.943Z,6.20
2022-09-23T08:11:42.774Z,4.30
2022-09-23T08:14:11.203Z,3.87
2022-09-23T08:16:39.833Z,4.30
2022-09-23T08:19:08.468Z,3.70
2022-09-23T08:21:39.220Z,3.77
2022-09-23T08:24:08.006Z,3.60
2022-09-23T08:26:36.488Z,3.50
2022-09-23T08:29:06.124Z,4.20
2022-09-23T08:31:34.338Z,3.70
2022-09-23T08:34:02.736Z,3.43
2022-09-23T08:36:33.558Z,6.13
2022-09-23T08:39:01.726Z,3.50
2022-09-23T08:41:39.604Z,2.83
2022-09-23T08:44:16.065Z,3.50
2022-09-23T08:46:48.426Z,3.60
2022-09-23T08:49:25.310Z,3.93
2022-09-23T08:51:55.898Z,3.17
2022-09-23T08:54:27.639Z,3.10
2022-09-23T08:57:00.962Z,3.20
2022-09-23T08:59:41.235Z,3.40
2022-09-23T09:02:16.806Z,3.40
2022-09-23T09:04:49.466Z,2.97
2022-09-23T09:07:36.201Z,3.03
2022-09-23T09:10:11.584Z,3.40
2022-09-23T09:12:44.556Z,3.50
2022-09-23T09:15:17.034Z,3.30
2022-09-23T09:17:59.212Z,2.93
2022-09-23T09:20:36.149Z,3.60
2022-09-23T09:23:10.957Z,3.70
2022-09-23T09:25:44.248Z,3.60
2022-09-23T09:28:19.755Z,3.83
2022-09-23T09:30:55.119Z,3.27
2022-09-23T09:33:30.479Z,3.50
2022-09-23T09:36:09.110Z,3.50
2022-09-23T09:38:38.005Z,3.90
2022-09-23T09:41:14.921Z,3.20
2022-09-23T09:43:48.442Z,3.43
2022-09-23T09:46:35.346Z,5.40
2022-09-23T09:49:11.093Z,3.33
2022-09-23T09:51:41.155Z,3.10
2022-09-23T09:54:23.221Z,4.03
2022-09-23T09:56:52.590Z,3.73
2022-09-23T09:59:27.257Z,3.77
2022-09-23T10:02:23.098Z,3.40
2022-09-23T10:04:58.986Z,4.00
2022-09-23T10:07:30.148Z,3.57
2022-09-23T10:10:06.037Z,3.03
2022-09-23T10:12:47.226Z,3.97
2022-09-23T10:15:31.265Z,3.67
2022-09-23T10:18:02.034Z,5.87
2022-09-23T10:20:38.264Z,12.53
2022-09-23T10:23:14.341Z,3.73
2022-09-23T10:25:43.761Z,3.80
2022-09-23T10:28:40.827Z,3.57
2022-09-23T10:31:11.960Z,3.90
2022-09-23T10:33:49.840Z,3.60
2022-09-23T10:36:19.286Z,4.40
2022-09-23T10:38:50.380Z,4.87
2022-09-23T10:41:49.537Z,4.27
2022-09-23T10:44:48.364Z,3.80
2022-09-23T10:47:27.209Z,4.30
2022-09-23T10:50:23.123Z,3.90
2022-09-23T10:53:04.945Z,4.50
2022-09-23T10:55:46.679Z,4.20
2022-09-23T10:58:58.293Z,4.13
2022-09-23T11:01:36.764Z,4.57
2022-09-23T11:04:40.737Z,4.80
2022-09-23T11:07:21.905Z,4.53
2022-09-23T11:10:23.334Z,3.73
2022-09-23T11:13:07.750Z,3.80
2022-09-23T11:15:45.950Z,4.87
2022-09-23T11:18:48.348Z,4.57
2022-09-23T11:21:37.143Z,4.53
2022-09-23T11:24:33.061Z,4.20
2022-09-23T11:27:11.756Z,4.33
2022-09-23T11:29:57.098Z,3.50
2022-09-23T11:32:44.896Z,4.13
2022-09-23T11:35:17.700Z,4.40
2022-09-23T11:37:50.061Z,4.63
2022-09-23T11:40:24.538Z,4.37
2022-09-23T11:42:58.094Z,8.47
2022-09-23T11:45:31.725Z,4.77
2022-09-23T11:48:05.350Z,4.30
2022-09-23T11:50:37.912Z,4.40
2022-09-23T11:53:12.829Z,4.60
2022-09-23T11:55:56.809Z,4.00
2022-09-23T11:58:29.647Z,4.97
2022-09-23T12:01:02.190Z,4.87
2022-09-23T12:03:44.663Z,4.90
2022-09-23T12:06:17.073Z,4.33
2022-09-23T12:08:45.204Z,4.30
2022-09-23T12:11:26.498Z,4.10
2022-09-23T12:14:03.100Z,4.70
2022-09-23T12:16:45.592Z,4.70
2022-09-23T12:19:29.578Z,4.50
2022-09-23T12:22:19.704Z,4.20
2022-09-23T12:24:59.694Z,5.23
2022-09-23T12:27:46.806Z,5.47
2022-09-23T12:30:23.989Z,4.50
2022-09-23T12:33:11.728Z,5.03
2022-09-23T12:35:50.287Z,4.60
2022-09-23T12:38:27.208Z,5.50
2022-09-23T12:40:57.058Z,4.10
2022-09-23T12:43:31.668Z,4.87
2022-09-23T12:46:20.648Z,4.43
2022-09-23T12:49:01.612Z,4.80
2022-09-23T12:51:30.619Z,4.53
2022-09-23T12:54:15.055Z,4.60
2022-09-23T12:57:03.526Z,5.40
2022-09-23T12:59:48.994Z,4.73
2022-09-23T13:02:37.166Z,5.10
2022-09-23T13:05:38.848Z,5.20
2022-09-23T13:08:10.476Z,5.23
2022-09-23T13:10:44.692Z,5.20
2022-09-23T13:13:23.175Z,5.23
2022-09-23T13:15:54.973Z,5.20
2022-09-23T13:18:58.952Z,5.50
2022-09-23T13:22:02.937Z,4.70
2022-09-23T13:24:41.552Z,4.60
2022-09-23T13:27:31.671Z,4.83
2022-09-23T13:30:05.100Z,4.30
2022-09-23T13:32:38.537Z,4.40
2022-09-23T13:35:16.392Z,5.60
2022-09-23T13:37:46.174Z,4.43
2022-09-23T13:40:21.363Z,3.97
2022-09-23T13:42:53.590Z,4.40
2022-09-23T13:45:24.780Z,4.40
2022-09-23T13:47:57.166Z,4.17
2022-09-23T13:50:26.488Z,4.20
2022-09-23T13:52:57.537Z,5.00
2022-09-23T13:55:32.716Z,4.70
2022-09-23T13:58:03.518Z,5.20
2022-09-23T14:00:39.620Z,4.53
2022-09-23T14:03:26.063Z,4.80
2022-09-23T14:05:55.985Z,4.93
2022-09-23T14:08:24.750Z,5.70
2022-09-23T14:10:53.552Z,10.20
2022-09-23T14:13:26.132Z,7.90
2022-09-23T14:15:58.280Z,5.90
2022-09-23T14:18:38.260Z,5.63
2022-09-23T14:21:07.261Z,5.73
2022-09-23T14:23:35.428Z,6.17
2022-09-23T14:26:03.832Z,5.80
2022-09-23T14:28:32.394Z,6.60
2022-09-23T14:31:00.836Z,6.37
2022-09-23T14:33:33.760Z,7.10
2022-09-23T14:36:07.674Z,5.80
2022-09-23T14:38:50.740Z,6.80
2022-09-23T14:41:23.883Z,11.07
2022-09-23T14:43:59.326Z,8.00
2022-09-23T14:46:30.078Z,8.00
2022-09-23T14:49:07.742Z,7.20
2022-09-23T14:51:45.675Z,6.20
2022-09-23T14:54:42.431Z,7.10
2022-09-23T14:57:27.161Z,10.87
2022-09-23T14:59:59.822Z,8.87
2022-09-23T15:02:33.436Z,12.70
2022-09-23T15:05:18.965Z,8.53
2022-09-23T15:07:50.624Z,7.50
2022-09-23T15:10:23.617Z,6.77
2022-09-23T15:12:53.563Z,6.90
2022-09-23T15:15:28.301Z,6.90
2022-09-23T15:17:56.831Z,7.70
2022-09-23T15:20:28.458Z,7.37
2022-09-23T15:22:57.578Z,8.10
2022-09-23T15:25:31.392Z,7.80
2022-09-23T15:28:03.470Z,7.93
2022-09-23T15:30:32.770Z,6.80
2022-09-23T15:33:00.997Z,7.90
2022-09-23T15:35:32.007Z,7.70
2022-09-23T15:38:02.739Z,8.93
2022-09-23T15:40:34.118Z,9.93
2022-09-23T15:43:12.447Z,9.17
2022-09-23T15:45:46.596Z,9.57
2022-09-23T15:48:16.295Z,8.10
2022-09-23T15:50:47.006Z,10.37
2022-09-23T15:53:18.824Z,9.17
2022-09-23T15:55:47.038Z,13.23
2022-09-23T15:58:15.209Z,12.20
2022-09-23T16:00:43.402Z,11.50
2022-09-23T16:03:15.094Z,10.80
2022-09-23T16:05:47.198Z,11.27
2022-09-23T16:08:15.687Z,10.27
2022-09-23T16:10:44.616Z,9.37
2022-09-23T16:13:15.248Z,8.47
2022-09-23T16:15:43.558Z,9.23
2022-09-23T16:18:12.824Z,10.70
2022-09-23T16:20:44.543Z,9.40
2022-09-23T16:23:34.108Z,9.23
2022-09-23T16:26:05.576Z,9.60
2022-09-23T16:28:33.671Z,9.67
2022-09-23T16:31:01.824Z,9.83
2022-09-23T16:33:30.233Z,10.20
2022-09-23T16:36:00.969Z,9.87
2022-09-23T16:38:31.464Z,9.10
2022-09-23T16:41:01.300Z,10.00
2022-09-23T16:43:31.654Z,9.70
2022-09-23T16:46:00.324Z,9.10
2022-09-23T16:48:28.958Z,10.00
2022-09-23T16:50:57.377Z,9.77
2022-09-23T16:53:26.404Z,9.57
2022-09-23T16:55:57.885Z,10.00
2022-09-23T16:58:26.229Z,10.07
2022-09-23T17:01:16.343Z,9.80
2022-09-23T17:03:44.716Z,9.47
2022-09-23T17:06:13.988Z,10.60
2022-09-23T17:08:42.317Z,10.50
2022-09-23T17:11:12.013Z,13.13
2022-09-23T17:13:42.329Z,15.33
2022-09-23T17:16:11.707Z,13.80
2022-09-23T17:18:39.985Z,13.60
2022-09-23T17:21:09.054Z,14.93
2022-09-23T17:23:38.187Z,18.40
2022-09-23T17:26:09.643Z,18.13
2022-09-23T17:28:39.191Z,17.43
2022-09-23T17:31:08.803Z,18.53
2022-09-23T17:33:38.763Z,18.30
2022-09-23T17:36:09.034Z,18.50
2022-09-23T17:38:39.115Z,19.63
2022-09-23T17:41:08.660Z,17.20
2022-09-23T17:43:39.182Z,19.87
2022-09-23T17:46:09.923Z,21.37
2022-09-23T17:48:41.248Z,21.50
2022-09-23T17:51:12.886Z,22.10
2022-09-23T17:53:43.461Z,26.60
2022-09-23T17:56:15.172Z,24.00
2022-09-23T17:58:45.947Z,18.83
2022-09-23T18:01:16.180Z,16.90
2022-09-23T18:03:44.600Z,18.30
2022-09-23T18:06:14.636Z,18.73
2022-09-23T18:08:45.078Z,18.07
2022-09-23T18:11:18.040Z,18.30
2022-09-23T18:13:52.213Z,19.50
2022-09-23T18:16:21.435Z,18.37
2022-09-23T18:18:53.065Z,17.40
2022-09-23T18:21:21.847Z,16.87
2022-09-23T18:23:50.409Z,18.00
2022-09-23T18:26:20.143Z,19.63
2022-09-23T18:28:50.016Z,23.37
2022-09-23T18:31:18.119Z,19.37
2022-09-23T18:33:51.494Z,18.70
2022-09-23T18:36:22.499Z,18.20
2022-09-23T18:38:51.493Z,18.33
2022-09-23T18:41:19.961Z,17.63
2022-09-23T18:43:49.319Z,17.10
2022-09-23T18:46:20.463Z,17.43
2022-09-23T18:49:06.884Z,18.60
2022-09-23T18:51:38.114Z,17.83
2022-09-23T18:54:09.645Z,18.50
2022-09-23T18:56:41.763Z,18.90
2022-09-23T18:59:14.381Z,19.60
2022-09-23T19:01:45.745Z,19.23
2022-09-23T19:04:16.429Z,19.93
2022-09-23T19:06:44.695Z,20.80
2022-09-23T19:09:13.530Z,19.60
2022-09-23T19:11:43.310Z,18.20
2022-09-23T19:14:12.797Z,19.27
2022-09-23T19:16:43.443Z,18.67
2022-09-23T19:19:12.085Z,19.00
2022-09-23T19:21:40.443Z,18.80
2022-09-23T19:24:09.479Z,18.90
2022-09-23T19:26:39.378Z,17.50
2022-09-23T19:29:09.317Z,17.83
2022-09-23T19:31:40.003Z,18.93
2022-09-23T19:34:14.088Z,17.50
2022-09-23T19:36:43.972Z,18.50
2022-09-23T19:39:17.031Z,18.50
2022-09-23T19:41:45.554Z,21.70
2022-09-23T19:44:14.125Z,21.33
2022-09-23T19:46:45.336Z,23.20
2022-09-23T19:49:15.151Z,22.63
2022-09-23T19:51:44.256Z,22.80
2022-09-23T19:54:12.970Z,21.13
2022-09-23T19:56:41.230Z,21.53
2022-09-23T19:59:09.445Z,20.80
2022-09-23T20:01:38.264Z,21.23
2022-09-23T20:04:06.743Z,22.23
2022-09-23T20:06:38.206Z,22.20
2022-09-23T20:09:06.719Z,27.33
2022-09-23T20:11:35.159Z,27.00
2022-09-23T20:14:06.015Z,23.80
2022-09-23T20:16:36.861Z,26.50
2022-09-23T20:19:05.961Z,25.23
2022-09-23T20:21:36.415Z,29.00
2022-09-23T20:24:06.953Z,27.60
2022-09-23T20:26:52.419Z,26.83
2022-09-23T20:29:20.758Z,23.57
2022-09-23T20:31:49.466Z,23.70
2022-09-23T20:34:19.770Z,23.10
2022-09-23T20:36:49.221Z,22.60
2022-09-23T20:39:17.332Z,23.00
2022-09-23T20:41:46.052Z,22.00
2022-09-23T20:44:14.258Z,21.80
2022-09-23T20:46:48.116Z,22.60
2022-09-23T20:49:17.448Z,24.17
2022-09-23T20:51:45.888Z,22.30
2022-09-23T20:54:15.940Z,22.43
2022-09-23T20:56:44.780Z,21.27
2022-09-23T20:59:14.772Z,22.80
2022-09-23T21:01:43.141Z,21.87
2022-09-23T21:04:11.276Z,20.70
2022-09-23T21:06:39.713Z,20.30
2022-09-23T21:09:08.729Z,22.13
2022-09-23T21:11:38.307Z,21.80
2022-09-23T21:14:09.063Z,21.63
2022-09-23T21:16:38.046Z,21.37
2022-09-23T21:19:08.005Z,19.90
2022-09-23T21:21:36.490Z,21.50
2022-09-23T21:24:31.317Z,21.43
2022-09-23T21:26:54.256Z,22.40
2022-09-23T21:29:22.405Z,20.40
2022-09-23T21:31:50.491Z,23.00
2022-09-23T21:34:19.373Z,23.70
2022-09-23T21:36:49.303Z,23.53
2022-09-23T21:39:17.549Z,22.40
2022-09-23T21:41:45.614Z,22.80
2022-09-23T21:44:16.066Z,24.80
2022-09-23T21:46:44.678Z,23.30
2022-09-23T21:49:13.196Z,22.90
2022-09-23T21:51:42.137Z,23.77
2022-09-23T21:54:17.895Z,23.30
2022-09-23T21:56:46.781Z,24.47
2022-09-23T21:59:19.711Z,25.00
2022-09-23T22:01:54.051Z,25.20
2022-09-23T22:04:22.477Z,25.40
2022-09-23T22:06:50.665Z,23.60
2022-09-23T22:09:20.947Z,25.20
2022-09-23T22:12:09.843Z,23.90
2022-09-23T22:14:39.524Z,27.30
2022-09-23T22:17:11.306Z,27.10
2022-09-23T22:19:45.741Z,26.70
2022-09-23T22:22:16.740Z,27.77
2022-09-23T22:24:45.996Z,26.37
2022-09-23T22:27:16.010Z,26.80
2022-09-23T22:30:03.031Z,27.40
2022-09-23T22:32:43.380Z,28.03
2022-09-23T22:35:13.477Z,28.10
2022-09-23T22:37:41.882Z,28.93
2022-09-23T22:40:14.345Z,28.67
2022-09-23T22:42:43.452Z,29.37
2022-09-23T22:45:14.294Z,29.60
2022-09-23T22:47:45.981Z,29.20
2022-09-23T22:50:15.474Z,29.40
2022-09-23T22:52:43.949Z,29.77
2022-09-23T22:55:12.570Z,29.93
2022-09-23T22:57:41.046Z,30.90
2022-09-23T23:00:13.325Z,29.50
2022-09-23T23:02:42.483Z,29.00
2022-09-23T23:05:11.028Z,29.43
2022-09-23T23:07:39.139Z,29.70
2022-09-23T23:10:10.078Z,29.07
2022-09-23T23:12:39.492Z,29.00
2022-09-23T23:15:09.252Z,31.33
2022-09-23T23:17:40.457Z,30.67
2022-09-23T23:20:09.465Z,31.10
2022-09-23T23:22:37.596Z,31.77
2022-09-23T23:25:06.398Z,32.37
2022-09-23T23:27:35.818Z,31.53
2022-09-23T23:30:04.280Z,30.57
2022-09-23T23:32:32.545Z,31.87
2022-09-23T23:35:02.090Z,29.77
2022-09-23T23:37:30.633Z,30.37
2022-09-23T23:39:58.800Z,30.83
2022-09-23T23:42:28.171Z,28.17
2022-09-23T23:44:56.501Z,28.93
2022-09-23T23:47:24.681Z,30.17
2022-09-23T23:49:52.851Z,29.67
2022-09-23T23:52:22.285Z,30.07
2022-09-23T23:54:51.635Z,31.10
2022-09-23T23:57:19.734Z,29.50
2022-09-23T23:59:47.831Z,28.17
